Terminal Aerodrome Forecast
Issued by NWS Mt. Holly, NJ

Home | Current Version | Previous Version | Text Only | Print | Product List | Glossary On
Versions: 1 2 3 4 5 6 7 8 9 10 11 12 13 14 15 16 17 18 19
000
FTUS41 KPHI 301457 AAA
TAFABE
TAF AMD
KABE 301457Z 3015/3112 23007KT P6SM FEW015 BKN100
      TEMPO 3017/3020 BKN025
     FM310200 VRB03KT 4SM BR SCT015 BKN250=

USA.gov is the U.S. government's official web portal to all federal, state and local government web resources and services.